createdAt,value
2018-03-25T00:01:25.668Z,3.70
2018-03-25T00:03:53.098Z,3.80
2018-03-25T00:06:20.524Z,3.60
2018-03-25T00:08:48.064Z,3.50
2018-03-25T00:11:15.507Z,3.40
2018-03-25T00:13:42.960Z,3.50
2018-03-25T00:16:10.368Z,3.50
2018-03-25T00:18:38.811Z,3.40
2018-03-25T00:21:06.456Z,3.40
2018-03-25T00:23:33.960Z,3.30
2018-03-25T00:26:01.488Z,3.30
2018-03-25T00:28:28.908Z,3.30
2018-03-25T00:30:56.387Z,3.30
2018-03-25T00:33:23.808Z,3.40
2018-03-25T00:35:51.236Z,3.40
2018-03-25T00:38:18.668Z,3.30
2018-03-25T00:40:46.113Z,3.30
2018-03-25T00:43:13.571Z,3.30
2018-03-25T00:45:41.227Z,3.30
2018-03-25T00:48:08.892Z,3.20
2018-03-25T00:50:36.312Z,3.20
2018-03-25T00:53:03.740Z,3.20
2018-03-25T00:55:31.261Z,3.20
2018-03-25T00:57:58.683Z,3.10
2018-03-25T01:00:26.104Z,3.10
2018-03-25T01:02:53.638Z,3.10
2018-03-25T01:05:21.269Z,3.00
2018-03-25T01:07:48.858Z,3.00
2018-03-25T01:10:16.276Z,2.90
2018-03-25T01:12:43.709Z,2.90
2018-03-25T01:15:11.127Z,2.90
2018-03-25T01:17:38.584Z,2.90
2018-03-25T01:20:06.058Z,2.90
2018-03-25T01:22:33.500Z,2.90
2018-03-25T01:25:01.051Z,3.00
2018-03-25T01:27:28.520Z,2.90
2018-03-25T01:29:56.259Z,3.00
2018-03-25T01:32:23.716Z,3.00
2018-03-25T01:34:51.184Z,3.00
2018-03-25T01:37:18.711Z,3.10
2018-03-25T01:39:46.281Z,3.10
2018-03-25T01:42:13.763Z,3.00
2018-03-25T01:44:41.244Z,2.90
2018-03-25T01:47:08.666Z,2.90
2018-03-25T01:49:36.132Z,2.90
2018-03-25T01:52:03.685Z,2.90
2018-03-25T01:54:31.137Z,2.90
2018-03-25T01:56:58.772Z,2.90
2018-03-25T01:59:26.205Z,2.90
2018-03-25T02:01:54.399Z,2.80
2018-03-25T02:04:21.840Z,2.80
2018-03-25T02:06:49.248Z,2.80
2018-03-25T02:09:16.727Z,2.80
2018-03-25T02:11:44.193Z,2.90
2018-03-25T02:14:11.612Z,2.80
2018-03-25T02:16:39.073Z,2.80
2018-03-25T02:19:06.476Z,2.80
2018-03-25T02:21:34.860Z,2.90
2018-03-25T02:24:02.312Z,2.90
2018-03-25T02:26:29.827Z,2.90
2018-03-25T02:28:57.372Z,2.80
2018-03-25T02:31:24.832Z,2.80
2018-03-25T02:33:52.449Z,2.90
2018-03-25T02:36:19.952Z,2.80
2018-03-25T02:38:47.400Z,2.80
2018-03-25T02:41:14.843Z,2.80
2018-03-25T02:43:42.271Z,2.80
2018-03-25T02:46:09.866Z,2.90
2018-03-25T02:48:37.304Z,2.80
2018-03-25T02:51:04.733Z,2.80
2018-03-25T02:53:32.277Z,2.80
2018-03-25T02:56:00.008Z,2.80
2018-03-25T02:58:27.439Z,2.80
2018-03-25T03:00:54.864Z,2.70
2018-03-25T03:05:56.278Z,2.70
2018-03-25T03:08:23.701Z,2.60
2018-03-25T03:10:51.131Z,2.60
2018-03-25T03:13:19.324Z,2.60
2018-03-25T03:15:46.894Z,2.60
2018-03-25T03:18:14.484Z,2.60
2018-03-25T03:20:41.924Z,2.60
2018-03-25T03:23:09.345Z,2.60
2018-03-25T03:25:36.775Z,2.60
2018-03-25T03:28:04.313Z,2.60
2018-03-25T03:30:31.759Z,2.70
2018-03-25T03:32:59.212Z,2.70
2018-03-25T03:35:26.677Z,2.70
2018-03-25T03:37:54.437Z,2.70
2018-03-25T03:40:21.880Z,2.70
2018-03-25T03:42:49.305Z,2.70
2018-03-25T03:45:16.732Z,2.70
2018-03-25T03:47:44.151Z,2.70
2018-03-25T03:50:11.581Z,2.60
2018-03-25T03:52:39.164Z,2.60
2018-03-25T03:55:06.635Z,2.50
2018-03-25T03:57:34.255Z,2.40
2018-03-25T04:00:01.801Z,2.40
2018-03-25T04:02:29.306Z,2.40
2018-03-25T04:04:56.724Z,2.40
2018-03-25T04:07:24.165Z,2.40
2018-03-25T04:09:51.583Z,2.30
2018-03-25T04:12:19.127Z,2.30
2018-03-25T04:14:46.543Z,2.30
2018-03-25T04:17:13.983Z,2.30
2018-03-25T04:19:41.505Z,2.30
2018-03-25T04:22:08.952Z,2.30
2018-03-25T04:24:36.421Z,2.30
2018-03-25T04:27:03.854Z,2.20
2018-03-25T04:29:31.280Z,2.20
2018-03-25T04:31:58.786Z,2.20
2018-03-25T04:34:26.200Z,2.20
2018-03-25T04:36:53.636Z,2.20
2018-03-25T04:39:21.140Z,2.20
2018-03-25T04:41:48.580Z,2.20
2018-03-25T04:44:16.015Z,2.10
2018-03-25T04:46:44.432Z,2.10
2018-03-25T04:49:11.881Z,2.10
2018-03-25T04:51:39.304Z,2.10
2018-03-25T04:54:06.736Z,2.10
2018-03-25T04:56:34.164Z,2.10
2018-03-25T04:59:01.596Z,2.00
2018-03-25T05:01:29.079Z,2.00
2018-03-25T05:03:56.500Z,1.90
2018-03-25T05:06:23.984Z,1.90
2018-03-25T05:08:51.535Z,2.00
2018-03-25T05:11:18.957Z,2.00
2018-03-25T05:13:46.399Z,2.00
2018-03-25T05:16:13.911Z,2.00
2018-03-25T05:18:41.367Z,2.00
2018-03-25T05:21:08.788Z,2.10
2018-03-25T05:23:36.284Z,2.10
2018-03-25T05:26:03.717Z,2.10
2018-03-25T05:28:31.198Z,2.00
2018-03-25T05:30:58.649Z,2.10
2018-03-25T05:33:26.110Z,2.10
2018-03-25T05:35:53.878Z,2.10
2018-03-25T05:38:21.631Z,2.10
2018-03-25T05:40:49.096Z,2.00
2018-03-25T05:43:16.544Z,1.90
2018-03-25T05:45:43.976Z,1.90
2018-03-25T05:48:11.400Z,1.80
2018-03-25T05:50:38.837Z,1.80
2018-03-25T05:53:06.361Z,1.80
2018-03-25T05:55:33.792Z,1.80
2018-03-25T05:58:01.292Z,1.80
2018-03-25T06:00:28.732Z,1.80
2018-03-25T06:02:56.152Z,1.80
2018-03-25T06:05:23.588Z,1.80
2018-03-25T06:07:51.004Z,1.80
2018-03-25T06:10:18.571Z,1.80
2018-03-25T06:12:46.196Z,1.90
2018-03-25T06:15:13.695Z,1.90
2018-03-25T06:17:41.123Z,1.90
2018-03-25T06:20:08.561Z,2.00
2018-03-25T06:22:36.160Z,2.00
2018-03-25T06:25:03.580Z,2.10
2018-03-25T06:27:31.011Z,2.10
2018-03-25T06:29:58.436Z,2.10
2018-03-25T06:32:25.891Z,2.10
2018-03-25T06:34:53.309Z,2.20
2018-03-25T06:37:20.888Z,2.20
2018-03-25T06:39:48.312Z,2.20
2018-03-25T06:42:15.735Z,2.30
2018-03-25T06:44:43.168Z,2.30
2018-03-25T06:47:10.713Z,2.40
2018-03-25T06:49:38.169Z,2.40
2018-03-25T06:52:05.599Z,2.50
2018-03-25T06:54:33.020Z,2.60
2018-03-25T06:57:01.341Z,2.70
2018-03-25T06:59:28.933Z,2.70
2018-03-25T07:01:56.715Z,2.90
2018-03-25T07:04:24.409Z,3.00
2018-03-25T07:06:51.910Z,3.10
2018-03-25T07:09:19.338Z,3.20
2018-03-25T07:11:46.817Z,3.20
2018-03-25T07:14:14.261Z,3.30
2018-03-25T07:16:41.681Z,3.40
2018-03-25T07:19:09.125Z,3.50
2018-03-25T07:21:36.546Z,3.60
2018-03-25T07:24:04.099Z,3.70
2018-03-25T07:26:31.832Z,3.80
2018-03-25T07:28:59.311Z,3.90
2018-03-25T07:31:26.723Z,3.90
2018-03-25T07:33:54.219Z,4.00
2018-03-25T07:36:21.646Z,4.10
2018-03-25T07:38:49.076Z,4.20
2018-03-25T07:41:16.604Z,4.30
2018-03-25T07:43:44.059Z,4.40
2018-03-25T07:46:11.685Z,4.50
2018-03-25T07:48:39.293Z,4.60
2018-03-25T07:51:06.725Z,4.60
2018-03-25T07:53:34.160Z,4.70
2018-03-25T07:56:01.601Z,4.90
2018-03-25T07:58:29.035Z,5.00
2018-03-25T08:00:57.472Z,5.10
2018-03-25T08:03:25.108Z,5.10
2018-03-25T08:05:52.568Z,5.30
2018-03-25T08:08:20.054Z,5.30
2018-03-25T08:10:48.445Z,5.50
2018-03-25T08:13:15.992Z,5.50
2018-03-25T08:15:43.452Z,5.60
2018-03-25T08:18:11.068Z,5.70
2018-03-25T08:20:38.495Z,5.80
2018-03-25T08:23:06.733Z,6.00
2018-03-25T08:25:34.500Z,6.00
2018-03-25T08:28:02.248Z,6.10
2018-03-25T08:30:29.689Z,6.20
2018-03-25T08:32:57.111Z,6.40
2018-03-25T08:35:24.634Z,6.50
2018-03-25T08:37:52.274Z,6.60
2018-03-25T08:40:19.760Z,6.70
2018-03-25T08:42:47.174Z,6.80
2018-03-25T08:45:14.677Z,6.90
2018-03-25T08:47:42.117Z,7.10
2018-03-25T08:50:09.612Z,7.20
2018-03-25T08:52:37.039Z,7.30
2018-03-25T08:55:04.596Z,7.40
2018-03-25T08:57:32.043Z,7.50
2018-03-25T08:59:59.669Z,7.60
2018-03-25T09:02:27.132Z,7.70
2018-03-25T09:04:54.584Z,7.80
2018-03-25T09:07:22.092Z,7.90
2018-03-25T09:09:49.525Z,8.00
2018-03-25T09:12:16.965Z,8.10
2018-03-25T09:14:44.548Z,8.20
2018-03-25T09:17:12.193Z,8.40
2018-03-25T09:19:39.623Z,8.50
2018-03-25T09:22:07.250Z,8.60
2018-03-25T09:24:34.648Z,8.70
2018-03-25T09:27:02.131Z,8.90
2018-03-25T09:29:29.592Z,9.10
2018-03-25T09:31:57.011Z,9.20
2018-03-25T09:34:24.489Z,9.40
2018-03-25T09:36:51.910Z,9.50
2018-03-25T09:39:19.410Z,9.70
2018-03-25T09:41:46.864Z,9.80
2018-03-25T09:44:14.520Z,10.00
2018-03-25T09:46:42.085Z,10.30
2018-03-25T09:49:09.560Z,10.40
2018-03-25T09:51:37.319Z,10.60
2018-03-25T09:54:04.762Z,10.70
2018-03-25T09:56:32.201Z,10.80
2018-03-25T09:58:59.701Z,11.00
2018-03-25T10:01:45.696Z,11.10
2018-03-25T10:04:13.153Z,11.30
2018-03-25T10:06:40.647Z,11.40
2018-03-25T10:09:08.104Z,11.50
2018-03-25T10:11:35.540Z,11.60
2018-03-25T10:14:03.768Z,11.90
2018-03-25T10:16:31.281Z,11.90
2018-03-25T10:18:59.044Z,12.00
2018-03-25T10:21:26.622Z,12.20
2018-03-25T10:23:54.081Z,12.40
2018-03-25T10:26:22.505Z,12.60
2018-03-25T10:28:50.048Z,12.60
2018-03-25T10:31:17.812Z,12.60
2018-03-25T10:33:45.267Z,12.80
2018-03-25T10:36:12.724Z,12.90
2018-03-25T10:38:40.179Z,13.10
2018-03-25T10:41:07.640Z,13.20
2018-03-25T10:43:35.234Z,13.40
2018-03-25T10:46:02.856Z,13.40
2018-03-25T10:48:30.312Z,13.70
2018-03-25T10:50:57.737Z,13.90
2018-03-25T10:53:25.178Z,14.10
2018-03-25T10:55:52.681Z,14.20
2018-03-25T10:58:20.141Z,14.40
2018-03-25T11:00:47.761Z,14.60
2018-03-25T11:03:15.266Z,14.90
2018-03-25T11:05:42.696Z,15.10
2018-03-25T11:08:10.260Z,15.40
2018-03-25T11:10:37.681Z,15.50
2018-03-25T11:13:05.111Z,15.60
2018-03-25T11:15:32.533Z,15.80
2018-03-25T11:18:00.041Z,15.90
2018-03-25T11:20:27.552Z,16.00
2018-03-25T11:22:55.176Z,16.20
2018-03-25T11:25:22.678Z,16.30
2018-03-25T11:27:50.112Z,16.40
2018-03-25T11:30:17.544Z,16.60
2018-03-25T11:32:45.141Z,16.60
2018-03-25T11:35:12.567Z,16.80
2018-03-25T11:37:39.983Z,17.00
2018-03-25T11:40:07.509Z,17.10
2018-03-25T11:42:34.928Z,17.30
2018-03-25T11:45:02.419Z,17.40
2018-03-25T11:47:30.219Z,17.50
2018-03-25T11:49:57.608Z,17.70
2018-03-25T11:52:25.332Z,18.00
2018-03-25T11:54:52.872Z,17.90
2018-03-25T11:57:20.611Z,17.90
2018-03-25T11:59:48.043Z,17.90
2018-03-25T12:02:15.527Z,18.10
2018-03-25T12:04:42.956Z,18.30
2018-03-25T12:07:10.387Z,18.40
2018-03-25T12:09:37.892Z,18.40
2018-03-25T12:12:05.324Z,18.60
2018-03-25T12:14:32.744Z,18.60
2018-03-25T12:17:01.105Z,18.70
2018-03-25T12:19:28.543Z,18.70
2018-03-25T12:21:56.046Z,18.90
2018-03-25T12:24:23.472Z,19.10
2018-03-25T12:26:50.938Z,19.20
2018-03-25T12:29:18.377Z,19.40
2018-03-25T12:31:45.926Z,19.60
2018-03-25T12:34:13.346Z,19.40
2018-03-25T12:36:40.835Z,19.20
2018-03-25T12:39:08.632Z,19.30
2018-03-25T12:41:36.070Z,19.40
2018-03-25T12:44:03.816Z,19.50
2018-03-25T12:46:31.248Z,19.30
2018-03-25T12:48:58.728Z,19.60
2018-03-25T12:51:26.188Z,20.00
2018-03-25T12:53:53.641Z,20.40
2018-03-25T12:56:21.068Z,20.70
2018-03-25T12:58:49.262Z,21.60
2018-03-25T13:01:17.134Z,21.60
2018-03-25T13:03:44.544Z,22.00
2018-03-25T13:06:12.732Z,23.60
2018-03-25T13:08:40.156Z,23.60
2018-03-25T13:11:07.594Z,24.90
2018-03-25T13:13:35.051Z,26.20
2018-03-25T13:16:02.508Z,27.30
2018-03-25T13:18:29.966Z,28.90
2018-03-25T13:20:57.517Z,30.00
2018-03-25T13:23:24.948Z,31.00
2018-03-25T13:25:52.368Z,31.50
2018-03-25T13:28:20.044Z,32.60
2018-03-25T13:30:47.640Z,33.50
2018-03-25T13:33:15.408Z,34.00
2018-03-25T13:35:43.029Z,35.20
2018-03-25T13:38:10.628Z,36.40
2018-03-25T13:40:38.075Z,37.00
2018-03-25T13:43:05.509Z,36.90
2018-03-25T13:45:33.004Z,37.60
2018-03-25T13:48:00.427Z,38.50
2018-03-25T13:50:27.856Z,38.70
2018-03-25T13:52:55.280Z,38.40
2018-03-25T13:55:22.812Z,38.30
2018-03-25T13:57:50.272Z,38.60
2018-03-25T14:00:17.724Z,38.50
2018-03-25T14:02:45.188Z,38.40
2018-03-25T14:05:12.619Z,39.20
2018-03-25T14:07:40.092Z,38.90
2018-03-25T14:10:07.552Z,38.60
2018-03-25T14:12:35.016Z,38.90
2018-03-25T14:15:02.490Z,39.10
2018-03-25T14:17:30.096Z,39.30
2018-03-25T14:19:57.688Z,39.30
2018-03-25T14:22:25.105Z,39.80
2018-03-25T14:24:52.536Z,39.30
2018-03-25T14:27:19.953Z,38.80
2018-03-25T14:29:47.444Z,38.80
2018-03-25T14:32:14.968Z,38.80
2018-03-25T14:34:42.424Z,38.40
2018-03-25T14:37:09.843Z,38.80
2018-03-25T14:39:37.277Z,39.40
2018-03-25T14:42:04.715Z,40.00
2018-03-25T14:44:32.149Z,38.60
2018-03-25T14:46:59.597Z,37.60
2018-03-25T14:49:27.014Z,37.10
2018-03-25T14:51:55.213Z,36.30
2018-03-25T14:54:22.632Z,36.30
2018-03-25T14:56:50.068Z,36.00
2018-03-25T14:59:17.502Z,35.80
2018-03-25T15:01:45.056Z,35.50
2018-03-25T15:04:12.480Z,35.60
2018-03-25T15:06:39.912Z,36.30
2018-03-25T15:09:07.343Z,36.80
2018-03-25T15:11:34.873Z,37.00
2018-03-25T15:14:02.291Z,37.40
2018-03-25T15:16:29.788Z,37.70
2018-03-25T15:18:57.248Z,38.10
2018-03-25T15:21:24.708Z,38.30
2018-03-25T15:23:52.209Z,38.10
2018-03-25T15:26:19.782Z,38.50
2018-03-25T15:28:48.000Z,38.90
2018-03-25T15:31:15.453Z,38.90
2018-03-25T15:33:42.876Z,39.10
2018-03-25T15:36:10.372Z,38.70
2018-03-25T15:38:38.132Z,37.90
2018-03-25T15:41:05.557Z,37.90
2018-03-25T15:43:32.980Z,38.10
2018-03-25T15:46:01.316Z,38.20
2018-03-25T15:48:28.791Z,38.20
2018-03-25T15:50:56.345Z,38.00
2018-03-25T15:53:23.968Z,37.80
2018-03-25T15:55:51.449Z,37.60
2018-03-25T15:58:18.900Z,37.70
2018-03-25T16:00:46.462Z,37.50
2018-03-25T16:03:13.945Z,37.00
2018-03-25T16:05:41.686Z,37.00
2018-03-25T16:08:09.096Z,36.90
2018-03-25T16:10:37.523Z,36.50
2018-03-25T16:13:04.936Z,36.50
2018-03-25T16:15:33.165Z,36.10
2018-03-25T16:18:00.965Z,36.10
2018-03-25T16:20:28.489Z,35.90
2018-03-25T16:22:56.021Z,35.60
2018-03-25T16:25:23.455Z,35.50
2018-03-25T16:27:50.882Z,35.10
2018-03-25T16:30:18.397Z,34.40
2018-03-25T16:32:45.821Z,33.50
2018-03-25T16:35:13.248Z,32.70
2018-03-25T16:37:40.773Z,31.90
2018-03-25T16:40:08.203Z,31.70
2018-03-25T16:42:35.680Z,31.70
2018-03-25T16:45:03.145Z,31.70
2018-03-25T16:47:30.581Z,31.60
2018-03-25T16:49:57.997Z,31.30
2018-03-25T16:52:25.436Z,31.00
2018-03-25T16:54:52.870Z,30.40
2018-03-25T16:57:20.416Z,30.00
2018-03-25T16:59:47.908Z,29.40
2018-03-25T17:02:15.520Z,28.80
2018-03-25T17:04:43.040Z,28.00
2018-03-25T17:07:10.556Z,27.10
2018-03-25T17:09:38.313Z,26.10
2018-03-25T17:12:05.744Z,25.10
2018-03-25T17:14:33.169Z,24.00
2018-03-25T17:17:00.606Z,23.10
2018-03-25T17:19:28.048Z,22.10
2018-03-25T17:21:55.503Z,21.30
2018-03-25T17:24:23.052Z,20.60
2018-03-25T17:26:50.684Z,20.00
2018-03-25T17:29:18.185Z,19.40
2018-03-25T17:31:45.720Z,18.90
2018-03-25T17:34:13.181Z,18.50
2018-03-25T17:36:40.642Z,18.10
2018-03-25T17:39:08.088Z,17.70
2018-03-25T17:41:35.503Z,17.40
2018-03-25T17:44:02.929Z,17.00
2018-03-25T17:46:30.428Z,16.70
2018-03-25T17:49:03.460Z,16.40
2018-03-25T17:51:31.084Z,16.30
2018-03-25T17:53:58.571Z,16.00
2018-03-25T17:56:25.997Z,15.90
2018-03-25T17:58:53.472Z,15.70
2018-03-25T18:01:21.044Z,15.50
2018-03-25T18:03:48.472Z,15.40
2018-03-25T18:06:15.900Z,15.20
2018-03-25T18:08:43.333Z,15.10
2018-03-25T18:11:10.792Z,14.90
2018-03-25T18:13:38.227Z,14.70
2018-03-25T18:16:05.668Z,14.60
2018-03-25T18:18:33.132Z,14.50
2018-03-25T18:21:00.573Z,14.40
2018-03-25T18:23:28.044Z,14.20
2018-03-25T18:25:55.609Z,14.10
2018-03-25T18:28:23.351Z,14.00
2018-03-25T18:30:50.815Z,13.80
2018-03-25T18:33:18.295Z,13.60
2018-03-25T18:35:45.730Z,13.50
2018-03-25T18:38:13.376Z,13.30
2018-03-25T18:40:40.897Z,13.10
2018-03-25T18:43:08.320Z,12.90
2018-03-25T18:45:35.750Z,13.00
2018-03-25T18:48:03.191Z,12.90
2018-03-25T18:50:30.773Z,12.70
2018-03-25T18:52:58.210Z,12.50
2018-03-25T18:55:25.695Z,12.20
2018-03-25T18:57:53.331Z,12.00
2018-03-25T19:00:20.796Z,11.80
2018-03-25T19:02:48.221Z,11.70
2018-03-25T19:05:16.614Z,11.40
2018-03-25T19:07:44.113Z,11.40
2018-03-25T19:10:11.651Z,11.30
2018-03-25T19:12:39.107Z,11.20
2018-03-25T19:15:06.543Z,11.10
2018-03-25T19:17:33.986Z,11.00
2018-03-25T19:20:01.493Z,11.00
2018-03-25T19:22:28.924Z,11.00
2018-03-25T19:24:56.399Z,11.00
2018-03-25T19:27:23.821Z,11.00
2018-03-25T19:29:51.261Z,11.00
2018-03-25T19:32:18.713Z,11.00
2018-03-25T19:34:46.124Z,11.00
2018-03-25T19:37:13.672Z,10.80
2018-03-25T19:39:41.317Z,10.60
2018-03-25T19:42:08.802Z,10.50
2018-03-25T19:44:36.264Z,10.50
2018-03-25T19:47:03.848Z,10.40
2018-03-25T19:49:31.605Z,10.50
2018-03-25T19:51:59.227Z,10.40
2018-03-25T19:54:26.709Z,10.40
2018-03-25T19:56:54.254Z,10.40
2018-03-25T19:59:21.676Z,10.20
2018-03-25T20:01:49.151Z,10.10
2018-03-25T20:04:16.588Z,9.90
2018-03-25T20:06:44.080Z,9.80
2018-03-25T20:09:11.520Z,9.70
2018-03-25T20:11:38.952Z,9.80
2018-03-25T20:14:06.411Z,9.90
2018-03-25T20:16:33.893Z,9.90
2018-03-25T20:19:01.363Z,9.90
2018-03-25T20:21:28.993Z,9.90
2018-03-25T20:23:56.572Z,9.80
2018-03-25T20:26:24.225Z,9.90
2018-03-25T20:28:51.637Z,9.80
2018-03-25T20:31:19.848Z,9.80
2018-03-25T20:33:47.261Z,9.80
2018-03-25T20:36:14.696Z,9.80
2018-03-25T20:38:42.128Z,9.60
2018-03-25T20:41:09.560Z,9.50
2018-03-25T20:43:37.142Z,9.40
2018-03-25T20:46:04.647Z,9.30
2018-03-25T20:48:32.375Z,9.20
2018-03-25T20:50:59.817Z,9.10
2018-03-25T20:53:27.253Z,9.10
2018-03-25T20:55:55.544Z,8.90
2018-03-25T20:58:22.995Z,8.90
2018-03-25T21:00:50.563Z,8.90
2018-03-25T21:03:18.005Z,8.90
2018-03-25T21:05:45.429Z,8.90
2018-03-25T21:08:12.928Z,8.90
2018-03-25T21:10:40.364Z,8.70
2018-03-25T21:13:07.844Z,8.60
2018-03-25T21:15:35.268Z,8.60
2018-03-25T21:18:02.707Z,8.50
2018-03-25T21:20:30.128Z,8.50
2018-03-25T21:22:57.631Z,8.40
2018-03-25T21:25:25.124Z,8.40
2018-03-25T21:27:52.551Z,8.30
2018-03-25T21:30:19.992Z,8.30
2018-03-25T21:32:47.492Z,8.20
2018-03-25T21:35:14.960Z,8.20
2018-03-25T21:37:42.604Z,8.00
2018-03-25T21:40:10.172Z,7.90
2018-03-25T21:42:37.600Z,7.70
2018-03-25T21:45:05.044Z,7.70
2018-03-25T21:47:32.477Z,7.70
2018-03-25T21:49:59.988Z,7.60
2018-03-25T21:52:27.424Z,7.60
2018-03-25T21:54:54.901Z,7.60
2018-03-25T21:57:22.336Z,7.70
2018-03-25T21:59:49.814Z,7.70
2018-03-25T22:02:17.243Z,7.80
2018-03-25T22:04:44.688Z,7.80
2018-03-25T22:07:12.192Z,7.80
2018-03-25T22:09:39.650Z,7.80
2018-03-25T22:12:07.073Z,7.90
2018-03-25T22:14:34.513Z,7.90
2018-03-25T22:17:01.937Z,8.00
2018-03-25T22:19:29.369Z,8.10
2018-03-25T22:21:56.807Z,8.10
2018-03-25T22:24:24.242Z,8.10
2018-03-25T22:26:51.726Z,8.10
2018-03-25T22:29:19.289Z,8.20
2018-03-25T22:31:46.754Z,8.20
2018-03-25T22:34:14.516Z,8.30
2018-03-25T22:36:42.152Z,8.30
2018-03-25T22:42:14.588Z,8.40
2018-03-25T22:44:42.013Z,8.50
2018-03-25T22:47:09.487Z,8.50
2018-03-25T22:49:36.907Z,8.50
2018-03-25T22:52:04.483Z,8.60
2018-03-25T22:54:31.898Z,8.60
2018-03-25T22:56:59.327Z,8.70
2018-03-25T22:59:26.748Z,8.70
2018-03-25T23:01:54.244Z,8.70
2018-03-25T23:04:22.689Z,8.80
2018-03-25T23:06:50.155Z,8.80
2018-03-25T23:09:17.775Z,8.80
2018-03-25T23:11:46.184Z,8.90
2018-03-25T23:14:13.747Z,8.90
2018-03-25T23:16:41.167Z,8.90
2018-03-25T23:19:08.652Z,9.00
2018-03-25T23:21:36.118Z,9.00
2018-03-25T23:24:03.568Z,9.00
2018-03-25T23:26:30.985Z,9.10
2018-03-25T23:28:58.407Z,9.10
2018-03-25T23:31:25.830Z,9.20
2018-03-25T23:33:53.386Z,9.20
2018-03-25T23:36:20.851Z,9.20
2018-03-25T23:38:48.279Z,9.20
2018-03-25T23:41:15.707Z,9.30
2018-03-25T23:43:43.219Z,9.30
2018-03-25T23:46:10.647Z,9.30
2018-03-25T23:48:38.129Z,9.40
2018-03-25T23:51:05.586Z,9.40
2018-03-25T23:53:33.048Z,9.40
2018-03-25T23:56:00.508Z,9.40
2018-03-25T23:58:27.955Z,9.40
